createdAt,value
2022-10-20T00:00:43.000Z,1016.1
2022-10-20T00:01:55.000Z,1016.1
2022-10-20T00:03:08.000Z,1016.1
2022-10-20T00:04:20.000Z,1016.1
2022-10-20T00:05:32.000Z,1016.1
2022-10-20T00:06:44.000Z,1016.1
2022-10-20T00:07:56.000Z,1016
2022-10-20T00:09:09.000Z,1016
2022-10-20T00:10:21.000Z,1016
2022-10-20T00:11:33.000Z,1016
2022-10-20T00:12:45.000Z,1016
2022-10-20T00:13:57.000Z,1016
2022-10-20T00:15:08.000Z,1016
2022-10-20T00:16:21.000Z,1015.9
2022-10-20T00:17:33.000Z,1016
2022-10-20T00:18:45.000Z,1016
2022-10-20T00:19:57.000Z,1016
2022-10-20T00:21:09.000Z,1015.9
2022-10-20T00:22:22.000Z,1015.9
2022-10-20T00:23:34.000Z,1015.9
2022-10-20T00:24:46.000Z,1015.9
2022-10-20T00:25:58.000Z,1015.9
2022-10-20T00:27:10.000Z,1015.8
2022-10-20T00:28:23.000Z,1015.8
2022-10-20T00:29:35.000Z,1015.7
2022-10-20T00:30:46.000Z,1015.8
2022-10-20T00:31:58.000Z,1015.7
2022-10-20T00:33:10.000Z,1015.8
2022-10-20T00:34:22.000Z,1015.8
2022-10-20T00:35:35.000Z,1015.7
2022-10-20T00:36:47.000Z,1015.7
2022-10-20T00:37:59.000Z,1015.8
2022-10-20T00:39:11.000Z,1015.8
2022-10-20T00:40:23.000Z,1015.8
2022-10-20T00:41:36.000Z,1015.7
2022-10-20T00:42:48.000Z,1015.7
2022-10-20T00:44:00.000Z,1015.7
2022-10-20T00:45:12.000Z,1015.7
2022-10-20T00:46:23.000Z,1015.6
2022-10-20T00:47:36.000Z,1015.6
2022-10-20T00:48:48.000Z,1015.6
2022-10-20T00:50:00.000Z,1015.6
2022-10-20T00:51:12.000Z,1015.5
2022-10-20T00:52:24.000Z,1015.6
2022-10-20T00:53:36.000Z,1015.5
2022-10-20T00:54:49.000Z,1015.5
2022-10-20T00:56:01.000Z,1015.5
2022-10-20T00:57:13.000Z,1015.4
2022-10-20T00:58:25.000Z,1015.4
2022-10-20T00:59:37.000Z,1015.4
2022-10-20T01:00:50.000Z,1015.4
2022-10-20T01:02:01.000Z,1015.4
2022-10-20T01:03:13.000Z,1015.3
2022-10-20T01:04:25.000Z,1015.4
2022-10-20T01:05:37.000Z,1015.3
2022-10-20T01:06:50.000Z,1015.3
2022-10-20T01:08:02.000Z,1015.2
2022-10-20T01:09:14.000Z,1015.2
2022-10-20T01:10:26.000Z,1015.2
2022-10-20T01:11:38.000Z,1015.2
2022-10-20T01:12:50.000Z,1015.2
2022-10-20T01:14:03.000Z,1015.2
2022-10-20T01:15:15.000Z,1015.2
2022-10-20T01:16:27.000Z,1015.1
2022-10-20T01:17:38.000Z,1015.1
2022-10-20T01:18:50.000Z,1015.2
2022-10-20T01:20:03.000Z,1015.1
2022-10-20T01:21:15.000Z,1015.2
2022-10-20T01:22:27.000Z,1015.2
2022-10-20T01:23:39.000Z,1015.2
2022-10-20T01:24:51.000Z,1015.1
2022-10-20T01:26:03.000Z,1015.1
2022-10-20T01:27:16.000Z,1015.1
2022-10-20T01:28:28.000Z,1015.1
2022-10-20T01:29:40.000Z,1015.1
2022-10-20T01:30:52.000Z,1015.1
2022-10-20T01:32:04.000Z,1015.1
2022-10-20T01:33:16.000Z,1015.1
2022-10-20T01:34:28.000Z,1015
2022-10-20T01:35:40.000Z,1015
2022-10-20T01:36:52.000Z,1015
2022-10-20T01:38:04.000Z,1015
2022-10-20T01:39:16.000Z,1014.9
2022-10-20T01:40:29.000Z,1014.9
2022-10-20T01:41:41.000Z,1014.8
2022-10-20T01:42:53.000Z,1014.8
2022-10-20T01:44:05.000Z,1014.8
2022-10-20T01:45:17.000Z,1014.8
2022-10-20T01:46:30.000Z,1014.8
2022-10-20T01:47:42.000Z,1014.8
2022-10-20T01:48:53.000Z,1014.8
2022-10-20T01:50:05.000Z,1014.8
2022-10-20T01:51:17.000Z,1014.8
2022-10-20T01:52:30.000Z,1014.7
2022-10-20T01:53:42.000Z,1014.7
2022-10-20T01:54:54.000Z,1014.7
2022-10-20T01:56:06.000Z,1014.7
2022-10-20T01:57:18.000Z,1014.8
2022-10-20T01:58:30.000Z,1014.8
2022-10-20T01:59:43.000Z,1014.7
2022-10-20T02:00:55.000Z,1014.7
2022-10-20T02:02:07.000Z,1014.7
2022-10-20T02:03:19.000Z,1014.7
2022-10-20T02:04:30.000Z,1014.7
2022-10-20T02:05:43.000Z,1014.7
2022-10-20T02:06:55.000Z,1014.7
2022-10-20T02:08:07.000Z,1014.7
2022-10-20T02:09:19.000Z,1014.7
2022-10-20T02:10:31.000Z,1014.7
2022-10-20T02:11:43.000Z,1014.7
2022-10-20T02:12:56.000Z,1014.7
2022-10-20T02:14:08.000Z,1014.7
2022-10-20T02:15:20.537Z,1014.7
2022-10-20T02:16:32.000Z,1014.7
2022-10-20T02:17:44.000Z,1014.6
2022-10-20T02:18:57.000Z,1014.6
2022-10-20T02:20:08.000Z,1014.6
2022-10-20T02:21:20.000Z,1014.5
2022-10-20T02:22:32.000Z,1014.6
2022-10-20T02:23:44.000Z,1014.6
2022-10-20T02:24:57.000Z,1014.6
2022-10-20T02:26:09.000Z,1014.6
2022-10-20T02:27:20.000Z,1014.6
2022-10-20T02:28:32.000Z,1014.6
2022-10-20T02:29:44.000Z,1014.7
2022-10-20T02:30:56.000Z,1014.7
2022-10-20T02:32:09.000Z,1014.7
2022-10-20T02:33:21.000Z,1014.6
2022-10-20T02:34:33.000Z,1014.6
2022-10-20T02:35:45.000Z,1014.6
2022-10-20T02:36:57.000Z,1014.6
2022-10-20T02:38:10.000Z,1014.6
2022-10-20T02:39:22.000Z,1014.6
2022-10-20T02:41:46.000Z,1014.6
2022-10-20T02:42:57.000Z,1014.6
2022-10-20T02:44:09.995Z,1014.5
2022-10-20T02:45:22.000Z,1014.6
2022-10-20T02:46:34.000Z,1014.6
2022-10-20T02:47:46.000Z,1014.6
2022-10-20T02:48:58.000Z,1014.6
2022-10-20T02:50:10.000Z,1014.6
2022-10-20T02:51:23.000Z,1014.5
2022-10-20T02:52:35.000Z,1014.5
2022-10-20T02:53:47.000Z,1014.4
2022-10-20T02:54:59.000Z,1014.4
2022-10-20T02:56:11.000Z,1014.3
2022-10-20T02:57:24.000Z,1014.4
2022-10-20T02:58:35.000Z,1014.4
2022-10-20T02:59:47.000Z,1014.3
2022-10-20T03:00:59.000Z,1014.4
2022-10-20T03:02:11.000Z,1014.3
2022-10-20T03:03:23.000Z,1014.3
2022-10-20T03:04:36.000Z,1014.3
2022-10-20T03:05:48.000Z,1014.3
2022-10-20T03:07:00.000Z,1014.3
2022-10-20T03:08:12.000Z,1014.3
2022-10-20T03:09:24.000Z,1014.4
2022-10-20T03:10:37.000Z,1014.3
2022-10-20T03:11:49.000Z,1014.3
2022-10-20T03:13:01.000Z,1014.3
2022-10-20T03:14:12.000Z,1014.3
2022-10-20T03:15:24.000Z,1014.3
2022-10-20T03:16:36.000Z,1014.2
2022-10-20T03:17:49.000Z,1014.3
2022-10-20T03:19:01.000Z,1014.2
2022-10-20T03:20:13.000Z,1014.2
2022-10-20T03:21:25.000Z,1014.2
2022-10-20T03:22:37.000Z,1014.2
2022-10-20T03:23:50.000Z,1014.2
2022-10-20T03:25:02.000Z,1014.2
2022-10-20T03:26:14.000Z,1014.2
2022-10-20T03:27:26.000Z,1014.2
2022-10-20T03:28:38.000Z,1014.1
2022-10-20T03:29:50.000Z,1014.1
2022-10-20T03:31:02.000Z,1014.1
2022-10-20T03:32:14.000Z,1014
2022-10-20T03:33:26.000Z,1014
2022-10-20T03:34:38.000Z,1014
2022-10-20T03:35:50.000Z,1014
2022-10-20T03:37:03.000Z,1013.9
2022-10-20T03:38:15.000Z,1014
2022-10-20T03:39:27.000Z,1014
2022-10-20T03:40:39.000Z,1014
2022-10-20T03:41:51.000Z,1014
2022-10-20T03:43:04.000Z,1013.9
2022-10-20T03:44:16.000Z,1013.9
2022-10-20T03:45:27.000Z,1013.9
2022-10-20T03:46:39.000Z,1013.9
2022-10-20T03:47:51.000Z,1013.9
2022-10-20T03:49:03.000Z,1013.9
2022-10-20T03:50:16.000Z,1013.9
2022-10-20T03:51:28.000Z,1013.9
2022-10-20T03:52:40.000Z,1013.9
2022-10-20T03:53:52.000Z,1013.8
2022-10-20T03:55:04.000Z,1013.8
2022-10-20T03:56:17.000Z,1013.7
2022-10-20T03:57:29.000Z,1013.8
2022-10-20T03:58:41.000Z,1013.8
2022-10-20T03:59:53.000Z,1013.8
2022-10-20T04:01:04.000Z,1013.8
2022-10-20T04:02:17.000Z,1013.8
2022-10-20T04:03:29.000Z,1013.8
2022-10-20T04:04:41.000Z,1013.8
2022-10-20T04:05:53.000Z,1013.8
2022-10-20T04:07:05.000Z,1013.7
2022-10-20T04:08:17.000Z,1013.7
2022-10-20T04:09:30.000Z,1013.7
2022-10-20T04:10:42.000Z,1013.7
2022-10-20T04:11:54.000Z,1013.6
2022-10-20T04:13:06.000Z,1013.6
2022-10-20T04:14:18.000Z,1013.6
2022-10-20T04:15:31.000Z,1013.5
2022-10-20T04:16:43.000Z,1013.6
2022-10-20T04:17:55.000Z,1013.5
2022-10-20T04:19:07.000Z,1013.6
2022-10-20T04:20:18.000Z,1013.6
2022-10-20T04:22:43.000Z,1013.6
2022-10-20T04:25:07.000Z,1013.6
2022-10-20T04:26:19.000Z,1013.5
2022-10-20T04:27:31.000Z,1013.5
2022-10-20T04:28:44.000Z,1013.5
2022-10-20T04:29:56.000Z,1013.5
2022-10-20T04:31:08.000Z,1013.4
2022-10-20T04:32:20.000Z,1013.5
2022-10-20T04:33:32.000Z,1013.4
2022-10-20T04:34:44.000Z,1013.5
2022-10-20T04:35:57.000Z,1013.5
2022-10-20T04:37:08.000Z,1013.5
2022-10-20T04:38:20.000Z,1013.5
2022-10-20T04:39:32.000Z,1013.5
2022-10-20T04:40:44.000Z,1013.6
2022-10-20T04:41:57.000Z,1013.5
2022-10-20T04:43:09.000Z,1013.5
2022-10-20T04:44:21.000Z,1013.5
2022-10-20T04:45:33.000Z,1013.5
2022-10-20T04:46:45.000Z,1013.4
2022-10-20T04:47:58.000Z,1013.4
2022-10-20T04:49:10.000Z,1013.4
2022-10-20T04:50:22.000Z,1013.3
2022-10-20T04:51:34.000Z,1013.4
2022-10-20T04:52:45.000Z,1013.2
2022-10-20T04:53:57.000Z,1013.2
2022-10-20T04:55:10.000Z,1013.2
2022-10-20T04:56:22.000Z,1013.2
2022-10-20T04:57:34.000Z,1013.2
2022-10-20T04:58:46.000Z,1013.2
2022-10-20T04:59:58.000Z,1013.2
2022-10-20T05:01:11.000Z,1013.2
2022-10-20T05:02:23.000Z,1013.2
2022-10-20T05:03:35.000Z,1013.2
2022-10-20T05:04:47.000Z,1013.2
2022-10-20T05:05:59.000Z,1013.2
2022-10-20T05:07:11.000Z,1013.2
2022-10-20T05:08:23.000Z,1013.1
2022-10-20T05:09:35.000Z,1013.2
2022-10-20T05:10:47.000Z,1013.1
2022-10-20T05:11:59.000Z,1013.1
2022-10-20T05:13:11.000Z,1013.1
2022-10-20T05:14:24.000Z,1013.1
2022-10-20T05:15:36.000Z,1013.1
2022-10-20T05:16:48.000Z,1013
2022-10-20T05:18:00.000Z,1013
2022-10-20T05:19:12.000Z,1013
2022-10-20T05:20:25.000Z,1013
2022-10-20T05:21:37.000Z,1013
2022-10-20T05:22:49.000Z,1013
2022-10-20T05:24:01.000Z,1012.9
2022-10-20T05:25:12.000Z,1012.9
2022-10-20T05:26:24.000Z,1012.9
2022-10-20T05:27:37.000Z,1013
2022-10-20T05:28:49.000Z,1013
2022-10-20T05:30:01.000Z,1013
2022-10-20T05:31:13.000Z,1013
2022-10-20T05:32:25.000Z,1013
2022-10-20T05:33:38.000Z,1013
2022-10-20T05:34:50.000Z,1013
2022-10-20T05:36:02.000Z,1013.1
2022-10-20T05:37:14.000Z,1013
2022-10-20T05:38:26.000Z,1013.1
2022-10-20T05:39:38.000Z,1013.1
2022-10-20T05:42:02.000Z,1013.1
2022-10-20T05:43:14.000Z,1013
2022-10-20T05:44:26.000Z,1013.1
2022-10-20T05:45:38.000Z,1013
2022-10-20T05:46:51.000Z,1013
2022-10-20T05:48:03.000Z,1013.1
2022-10-20T05:49:15.000Z,1013.1
2022-10-20T05:50:27.000Z,1013.1
2022-10-20T05:51:39.000Z,1013.1
2022-10-20T05:52:52.000Z,1013
2022-10-20T05:54:04.000Z,1013.1
2022-10-20T05:55:16.000Z,1013.1
2022-10-20T05:56:27.000Z,1013.1
2022-10-20T05:57:39.000Z,1013.1
2022-10-20T05:58:51.000Z,1013
2022-10-20T06:00:04.000Z,1013
2022-10-20T06:01:16.000Z,1013
2022-10-20T06:02:28.000Z,1013
2022-10-20T06:03:40.000Z,1013
2022-10-20T06:04:52.000Z,1013
2022-10-20T06:06:05.000Z,1013.1
2022-10-20T06:07:17.000Z,1013.1
2022-10-20T06:08:29.000Z,1013
2022-10-20T06:09:41.000Z,1013.1
2022-10-20T06:10:53.000Z,1013
2022-10-20T06:12:05.000Z,1013
2022-10-20T06:13:17.000Z,1013
2022-10-20T06:14:29.000Z,1013
2022-10-20T06:15:41.000Z,1013
2022-10-20T06:16:53.000Z,1012.9
2022-10-20T06:18:05.000Z,1013
2022-10-20T06:19:18.000Z,1013
2022-10-20T06:20:30.000Z,1013
2022-10-20T06:21:42.000Z,1013
2022-10-20T06:22:54.000Z,1013
2022-10-20T06:24:06.000Z,1013
2022-10-20T06:25:19.000Z,1013
2022-10-20T06:26:31.000Z,1013.1
2022-10-20T06:27:43.000Z,1013.1
2022-10-20T06:28:54.000Z,1013
2022-10-20T06:30:06.000Z,1013.1
2022-10-20T06:31:18.000Z,1013
2022-10-20T06:32:31.000Z,1013
2022-10-20T06:33:43.000Z,1013
2022-10-20T06:34:55.000Z,1013
2022-10-20T06:36:07.000Z,1013
2022-10-20T06:37:19.000Z,1013
2022-10-20T06:38:32.000Z,1013
2022-10-20T06:39:44.000Z,1013.1
2022-10-20T06:40:56.000Z,1013.1
2022-10-20T06:42:08.000Z,1013
2022-10-20T06:43:20.000Z,1013
2022-10-20T06:44:32.000Z,1013
2022-10-20T06:45:44.000Z,1013
2022-10-20T06:46:56.000Z,1013
2022-10-20T06:48:08.000Z,1013
2022-10-20T06:49:20.000Z,1013
2022-10-20T06:50:32.000Z,1012.9
2022-10-20T06:51:45.000Z,1013
2022-10-20T06:52:57.000Z,1013
2022-10-20T06:54:09.000Z,1013
2022-10-20T06:55:21.000Z,1013
2022-10-20T06:56:33.000Z,1013
2022-10-20T06:57:46.000Z,1012.9
2022-10-20T06:58:58.000Z,1012.9
2022-10-20T07:00:09.000Z,1013
2022-10-20T07:01:21.000Z,1012.9
2022-10-20T07:02:33.000Z,1012.9
2022-10-20T07:03:45.000Z,1012.9
2022-10-20T07:04:58.000Z,1012.9
2022-10-20T07:06:10.000Z,1012.9
2022-10-20T07:07:22.000Z,1012.9
2022-10-20T07:08:34.000Z,1012.9
2022-10-20T07:09:46.000Z,1012.9
2022-10-20T07:10:59.000Z,1012.9
2022-10-20T07:12:11.000Z,1012.9
2022-10-20T07:13:23.000Z,1012.9
2022-10-20T07:14:35.000Z,1012.8
2022-10-20T07:15:46.000Z,1012.9
2022-10-20T07:16:58.000Z,1012.9
2022-10-20T07:18:11.000Z,1012.9
2022-10-20T07:19:23.000Z,1012.9
2022-10-20T07:20:35.000Z,1012.9
2022-10-20T07:21:47.000Z,1012.8
2022-10-20T07:22:59.000Z,1012.8
2022-10-20T07:24:12.000Z,1012.8
2022-10-20T07:25:24.000Z,1012.8
2022-10-20T07:26:36.000Z,1012.8
2022-10-20T07:27:48.000Z,1012.8
2022-10-20T07:29:00.000Z,1012.8
2022-10-20T07:30:13.000Z,1012.8
2022-10-20T07:31:24.000Z,1012.7
2022-10-20T07:32:36.000Z,1012.7
2022-10-20T07:33:48.000Z,1012.7
2022-10-20T07:35:00.000Z,1012.8
2022-10-20T07:36:12.000Z,1012.7
2022-10-20T07:37:25.000Z,1012.7
2022-10-20T07:38:37.000Z,1012.7
2022-10-20T07:39:49.000Z,1012.7
2022-10-20T07:41:01.000Z,1012.8
2022-10-20T07:42:13.000Z,1012.7
2022-10-20T07:43:26.000Z,1012.8
2022-10-20T07:44:38.000Z,1012.8
2022-10-20T07:45:50.000Z,1012.7
2022-10-20T07:47:02.000Z,1012.7
2022-10-20T07:48:13.000Z,1012.7
2022-10-20T07:49:25.000Z,1012.6
2022-10-20T07:50:38.000Z,1012.6
2022-10-20T07:51:50.000Z,1012.7
2022-10-20T07:53:02.000Z,1012.6
2022-10-20T07:54:14.000Z,1012.7
2022-10-20T07:55:26.000Z,1012.6
2022-10-20T07:56:39.000Z,1012.6
2022-10-20T07:57:51.000Z,1012.6
2022-10-20T07:59:03.000Z,1012.7
2022-10-20T08:00:15.000Z,1012.7
2022-10-20T08:02:40.000Z,1012.8
2022-10-20T08:03:51.000Z,1012.7
2022-10-20T08:06:15.000Z,1012.7
2022-10-20T08:07:27.000Z,1012.7
2022-10-20T08:08:39.000Z,1012.6
2022-10-20T08:09:52.000Z,1012.5
2022-10-20T08:11:04.000Z,1012.5
2022-10-20T08:12:16.000Z,1012.4
2022-10-20T08:13:28.000Z,1012.4
2022-10-20T08:14:40.000Z,1012.4
2022-10-20T08:15:53.000Z,1012.3
2022-10-20T08:17:05.000Z,1012.4
2022-10-20T08:18:17.000Z,1012.3
2022-10-20T08:19:28.000Z,1012.3
2022-10-20T08:21:52.000Z,1012.2
2022-10-20T08:23:05.000Z,1012.2
2022-10-20T08:24:17.000Z,1012.2
2022-10-20T08:25:29.000Z,1012.3
2022-10-20T08:26:41.000Z,1012.2
2022-10-20T08:26:54.000Z,1012.3
2022-10-20T08:27:53.000Z,1012.3
2022-10-20T08:29:06.000Z,1012.2
2022-10-20T08:30:18.000Z,1012.2
2022-10-20T08:31:30.000Z,1012.2
2022-10-20T08:32:42.000Z,1012.2
2022-10-20T08:33:54.000Z,1012.2
2022-10-20T08:35:06.000Z,1012.2
2022-10-20T08:36:18.000Z,1012.1
2022-10-20T08:37:30.000Z,1012.2
2022-10-20T08:38:42.000Z,1012.2
2022-10-20T08:39:54.000Z,1012.1
2022-10-20T08:41:06.000Z,1012.2
2022-10-20T08:42:19.000Z,1012.1
2022-10-20T08:43:31.000Z,1012.1
2022-10-20T08:44:43.000Z,1012.1
2022-10-20T08:45:55.000Z,1012.1
2022-10-20T08:47:07.000Z,1012.1
2022-10-20T08:48:20.000Z,1012
2022-10-20T08:49:32.000Z,1012
2022-10-20T08:50:43.000Z,1011.9
2022-10-20T08:51:55.000Z,1012
2022-10-20T08:53:07.000Z,1012
2022-10-20T08:54:19.000Z,1012
2022-10-20T08:55:32.000Z,1012
2022-10-20T08:56:44.000Z,1011.9
2022-10-20T08:57:56.000Z,1012
2022-10-20T08:59:08.000Z,1012
2022-10-20T09:00:20.000Z,1011.9
2022-10-20T09:01:33.000Z,1011.9
2022-10-20T09:02:45.000Z,1011.9
2022-10-20T09:03:57.000Z,1011.9
2022-10-20T09:05:09.000Z,1012
2022-10-20T09:06:20.000Z,1011.9
2022-10-20T09:07:33.000Z,1011.9
2022-10-20T09:08:45.000Z,1011.9
2022-10-20T09:09:57.000Z,1011.8
2022-10-20T09:11:09.000Z,1011.8
2022-10-20T09:12:21.000Z,1011.7
2022-10-20T09:13:33.000Z,1011.8
2022-10-20T09:14:46.000Z,1011.7
2022-10-20T09:15:58.000Z,1011.7
2022-10-20T09:17:10.000Z,1011.7
2022-10-20T09:18:22.000Z,1011.6
2022-10-20T09:19:34.000Z,1011.5
2022-10-20T09:20:47.000Z,1011.6
2022-10-20T09:21:58.000Z,1011.5
2022-10-20T09:23:10.000Z,1011.5
2022-10-20T09:24:22.000Z,1011.5
2022-10-20T09:25:34.000Z,1011.5
2022-10-20T09:26:46.000Z,1011.5
2022-10-20T09:27:59.000Z,1011.5
2022-10-20T09:29:11.000Z,1011.4
2022-10-20T09:30:23.000Z,1011.4
2022-10-20T09:31:35.000Z,1011.5
2022-10-20T09:32:47.000Z,1011.4
2022-10-20T09:34:00.000Z,1011.4
2022-10-20T09:35:12.000Z,1011.5
2022-10-20T09:36:24.000Z,1011.4
2022-10-20T09:37:35.000Z,1011.5
2022-10-20T09:38:47.000Z,1011.5
2022-10-20T09:40:00.000Z,1011.4
2022-10-20T09:41:12.000Z,1011.4
2022-10-20T09:42:24.000Z,1011.4
2022-10-20T09:43:36.000Z,1011.4
2022-10-20T09:44:48.000Z,1011.4
2022-10-20T09:46:00.000Z,1011.4
2022-10-20T09:47:13.000Z,1011.5
2022-10-20T09:48:25.000Z,1011.4
2022-10-20T09:49:37.000Z,1011.4
2022-10-20T09:50:49.000Z,1011.4
2022-10-20T09:52:01.000Z,1011.4
2022-10-20T09:53:13.000Z,1011.4
2022-10-20T09:54:25.000Z,1011.2
2022-10-20T09:55:37.000Z,1011.2
2022-10-20T09:56:49.000Z,1011.3
2022-10-20T09:58:01.000Z,1011.3
2022-10-20T09:59:13.000Z,1011.3
2022-10-20T10:00:26.000Z,1011.3
2022-10-20T10:01:38.000Z,1011.2
2022-10-20T10:02:50.000Z,1011.2
2022-10-20T10:04:02.000Z,1011.2
2022-10-20T10:05:14.000Z,1011.1
2022-10-20T10:06:27.000Z,1011.2
2022-10-20T10:07:39.000Z,1011.2
2022-10-20T10:08:50.000Z,1011.2
2022-10-20T10:10:02.000Z,1011.2
2022-10-20T10:11:14.000Z,1011.1
2022-10-20T10:12:26.000Z,1011.1
2022-10-20T10:13:39.000Z,1011.1
2022-10-20T10:14:51.000Z,1011
2022-10-20T10:16:03.000Z,1011
2022-10-20T10:17:15.000Z,1011
2022-10-20T10:18:27.000Z,1011
2022-10-20T10:19:40.000Z,1011
2022-10-20T10:20:52.000Z,1011.1
2022-10-20T10:22:04.000Z,1011.1
2022-10-20T10:23:16.000Z,1011
2022-10-20T10:24:27.000Z,1011
2022-10-20T10:25:40.000Z,1011
2022-10-20T10:26:52.000Z,1011
2022-10-20T10:28:04.000Z,1011
2022-10-20T10:29:16.000Z,1011
2022-10-20T10:30:27.000Z,1011
2022-10-20T10:31:39.000Z,1011.1
2022-10-20T10:32:52.000Z,1011
2022-10-20T10:34:04.000Z,1010.9
2022-10-20T10:35:16.000Z,1010.9
2022-10-20T10:36:28.000Z,1010.9
2022-10-20T10:37:40.000Z,1010.8
2022-10-20T10:38:53.000Z,1010.7
2022-10-20T10:40:05.000Z,1010.8
2022-10-20T10:41:17.000Z,1010.7
2022-10-20T10:42:29.000Z,1010.7
2022-10-20T10:43:41.000Z,1010.7
2022-10-20T10:44:54.000Z,1010.7
2022-10-20T10:46:05.000Z,1010.6
2022-10-20T10:47:17.000Z,1010.6
2022-10-20T10:48:29.000Z,1010.5
2022-10-20T10:49:41.000Z,1010.5
2022-10-20T10:50:53.000Z,1010.4
2022-10-20T10:52:06.000Z,1010.4
2022-10-20T10:53:18.000Z,1010.4
2022-10-20T10:54:30.000Z,1010.4
2022-10-20T10:55:42.000Z,1010.3
2022-10-20T10:56:54.000Z,1010.4
2022-10-20T10:58:07.000Z,1010.4
2022-10-20T10:59:19.000Z,1010.3
2022-10-20T11:00:31.000Z,1010.4
2022-10-20T11:01:42.000Z,1010.4
2022-10-20T11:02:54.000Z,1010.4
2022-10-20T11:04:06.000Z,1010.4
2022-10-20T11:05:19.000Z,1010.4
2022-10-20T11:06:31.000Z,1010.3
2022-10-20T11:07:43.000Z,1010.3
2022-10-20T11:08:55.000Z,1010.4
2022-10-20T11:10:07.000Z,1010.3
2022-10-20T11:11:20.000Z,1010.3
2022-10-20T11:12:32.000Z,1010.3
2022-10-20T11:13:44.000Z,1010.3
2022-10-20T11:14:56.000Z,1010.2
2022-10-20T11:16:08.000Z,1010.2
2022-10-20T11:17:20.000Z,1010.2
2022-10-20T11:18:32.000Z,1010.3
2022-10-20T11:19:44.000Z,1010.2
2022-10-20T11:20:56.000Z,1010.2
2022-10-20T11:22:08.000Z,1010.2
2022-10-20T11:23:20.000Z,1010.1
2022-10-20T11:24:33.000Z,1010.1
2022-10-20T11:25:45.000Z,1010.1
2022-10-20T11:26:57.000Z,1010.1
2022-10-20T11:28:09.000Z,1010
2022-10-20T11:29:21.000Z,1010
2022-10-20T11:30:34.000Z,1009.9
2022-10-20T11:31:46.000Z,1009.9
2022-10-20T11:32:57.000Z,1009.8
2022-10-20T11:34:09.000Z,1009.8
2022-10-20T11:35:21.000Z,1009.7
2022-10-20T11:37:46.000Z,1009.7
2022-10-20T11:38:58.000Z,1009.7
2022-10-20T11:40:10.000Z,1009.6
2022-10-20T11:41:22.000Z,1009.6
2022-10-20T11:42:34.000Z,1009.5
2022-10-20T11:42:47.000Z,1009.7
2022-10-20T11:43:47.000Z,1009.5
2022-10-20T11:46:11.000Z,1009.4
2022-10-20T11:47:23.000Z,1009.5
2022-10-20T11:48:34.000Z,1009.4
2022-10-20T11:49:47.000Z,1009.4
2022-10-20T11:50:59.000Z,1009.4
2022-10-20T11:52:11.000Z,1009.4
2022-10-20T11:53:23.000Z,1009.4
2022-10-20T11:54:35.000Z,1009.3
2022-10-20T11:55:48.000Z,1009.3
2022-10-20T11:57:00.000Z,1009.3
2022-10-20T11:58:12.000Z,1009.3
2022-10-20T11:59:24.000Z,1009.2
2022-10-20T12:00:36.000Z,1009.3
2022-10-20T12:01:48.000Z,1009.2
2022-10-20T12:03:01.000Z,1009.1
2022-10-20T12:04:12.000Z,1009.1
2022-10-20T12:05:24.000Z,1009.2
2022-10-20T12:06:36.000Z,1009.2
2022-10-20T12:07:48.000Z,1009.2
2022-10-20T12:09:01.000Z,1009.1
2022-10-20T12:10:13.000Z,1009.1
2022-10-20T12:11:25.000Z,1009.1
2022-10-20T12:12:37.000Z,1009
2022-10-20T12:13:49.000Z,1008.9
2022-10-20T12:15:01.000Z,1008.9
2022-10-20T12:16:14.000Z,1008.9
2022-10-20T12:17:26.000Z,1008.9
2022-10-20T12:18:38.000Z,1008.9
2022-10-20T12:21:01.000Z,1009
2022-10-20T12:22:14.000Z,1009
2022-10-20T12:23:26.000Z,1009
2022-10-20T12:24:38.479Z,1009
2022-10-20T12:25:50.000Z,1009
2022-10-20T12:26:03.000Z,1008.9
2022-10-20T12:27:02.000Z,1009
2022-10-20T12:28:15.000Z,1009
2022-10-20T12:29:27.000Z,1009
2022-10-20T12:30:39.000Z,1009
2022-10-20T12:31:51.000Z,1009
2022-10-20T12:33:03.000Z,1009
2022-10-20T12:34:15.000Z,1009
2022-10-20T12:35:27.000Z,1009
2022-10-20T12:36:39.000Z,1008.9
2022-10-20T12:37:51.000Z,1008.9
2022-10-20T12:39:03.000Z,1008.8
2022-10-20T12:40:15.000Z,1008.8
2022-10-20T12:41:28.000Z,1008.9
2022-10-20T12:42:40.000Z,1008.8
2022-10-20T12:43:52.000Z,1008.9
2022-10-20T12:45:04.000Z,1009
2022-10-20T12:46:16.000Z,1009
2022-10-20T12:48:41.000Z,1008.9
2022-10-20T12:49:53.000Z,1008.9
2022-10-20T12:51:04.000Z,1008.9
2022-10-20T12:52:16.000Z,1008.9
2022-10-20T12:53:28.000Z,1008.8
2022-10-20T12:53:42.000Z,1009
2022-10-20T12:54:41.000Z,1008.8
2022-10-20T12:55:53.000Z,1008.7
2022-10-20T12:57:05.000Z,1008.7
2022-10-20T12:58:17.000Z,1008.7
2022-10-20T12:59:29.000Z,1008.7
2022-10-20T13:00:42.000Z,1008.7
2022-10-20T13:01:54.000Z,1008.6
2022-10-20T13:03:06.000Z,1008.6
2022-10-20T13:04:18.000Z,1008.6
2022-10-20T13:05:30.000Z,1008.6
2022-10-20T13:06:42.000Z,1008.5
2022-10-20T13:07:54.000Z,1008.6
2022-10-20T13:09:06.000Z,1008.5
2022-10-20T13:10:18.000Z,1008.5
2022-10-20T13:11:30.000Z,1008.5
2022-10-20T13:12:42.000Z,1008.5
2022-10-20T13:13:55.000Z,1008.5
2022-10-20T13:15:07.000Z,1008.5
2022-10-20T13:16:19.000Z,1008.5
2022-10-20T13:17:31.000Z,1008.5
2022-10-20T13:18:43.000Z,1008.5
2022-10-20T13:19:56.000Z,1008.5
2022-10-20T13:21:08.000Z,1008.4
2022-10-20T13:22:19.000Z,1008.4
2022-10-20T13:23:31.000Z,1008.3
2022-10-20T13:24:43.000Z,1008.3
2022-10-20T13:25:55.000Z,1008.3
2022-10-20T13:27:08.000Z,1008.4
2022-10-20T13:28:20.000Z,1008.3
2022-10-20T13:30:44.000Z,1008.3
2022-10-20T13:31:56.000Z,1008.3
2022-10-20T13:33:09.000Z,1008.3
2022-10-20T13:34:21.000Z,1008.3
2022-10-20T13:35:33.000Z,1008.3
2022-10-20T13:35:46.000Z,1008.3
2022-10-20T13:36:45.000Z,1008.2
2022-10-20T13:37:56.000Z,1008.2
2022-10-20T13:39:09.000Z,1008.2
2022-10-20T13:40:21.000Z,1008.2
2022-10-20T13:41:33.000Z,1008.3
2022-10-20T13:42:45.000Z,1008.3
2022-10-20T13:43:57.000Z,1008.3
2022-10-20T13:45:09.000Z,1008.4
2022-10-20T13:46:22.000Z,1008.3
2022-10-20T13:47:34.000Z,1008.4
2022-10-20T13:48:46.000Z,1008.4
2022-10-20T13:49:58.000Z,1008.4
2022-10-20T13:51:10.000Z,1008.4
2022-10-20T13:52:23.000Z,1008.3
2022-10-20T13:53:34.000Z,1008.3
2022-10-20T13:54:46.000Z,1008.3
2022-10-20T13:55:58.000Z,1008.3
2022-10-20T13:57:10.000Z,1008.3
2022-10-20T13:58:23.000Z,1008.3
2022-10-20T14:00:47.000Z,1008.3
2022-10-20T14:01:59.000Z,1008.2
2022-10-20T14:03:11.000Z,1008.2
2022-10-20T14:04:23.000Z,1008.1
2022-10-20T14:05:36.000Z,1008.1
2022-10-20T14:05:49.000Z,1008.3
2022-10-20T14:06:48.000Z,1008
2022-10-20T14:08:00.000Z,1008.1
2022-10-20T14:09:11.000Z,1008.1
2022-10-20T14:10:23.000Z,1008.1
2022-10-20T14:11:36.000Z,1008
2022-10-20T14:12:48.000Z,1008
2022-10-20T14:14:00.000Z,1008
2022-10-20T14:16:24.000Z,1008
2022-10-20T14:17:37.000Z,1008
2022-10-20T14:18:49.000Z,1008
2022-10-20T14:20:01.000Z,1008
2022-10-20T14:21:13.000Z,1008
2022-10-20T14:21:26.000Z,1008
2022-10-20T14:22:25.000Z,1007.9
2022-10-20T14:23:37.000Z,1007.9
2022-10-20T14:24:49.000Z,1007.9
2022-10-20T14:26:01.000Z,1007.8
2022-10-20T14:27:13.000Z,1007.9
2022-10-20T14:28:25.000Z,1007.8
2022-10-20T14:29:37.000Z,1007.8
2022-10-20T14:30:50.000Z,1007.8
2022-10-20T14:33:13.000Z,1007.8
2022-10-20T14:34:24.000Z,1007.8
2022-10-20T14:35:36.000Z,1007.9
2022-10-20T14:36:49.000Z,1007.8
2022-10-20T14:38:01.000Z,1007.9
2022-10-20T14:39:13.000Z,1007.8
2022-10-20T14:40:25.000Z,1007.9
2022-10-20T14:41:37.000Z,1007.9
2022-10-20T14:42:49.000Z,1007.9
2022-10-20T14:44:02.000Z,1007.9
2022-10-20T14:45:14.000Z,1007.8
2022-10-20T14:46:26.000Z,1007.9
2022-10-20T14:47:38.000Z,1007.8
2022-10-20T14:48:50.000Z,1007.8
2022-10-20T14:50:02.000Z,1007.8
2022-10-20T14:51:14.000Z,1007.8
2022-10-20T14:52:26.000Z,1007.8
2022-10-20T14:53:38.000Z,1007.7
2022-10-20T14:54:50.000Z,1007.7
2022-10-20T14:56:03.000Z,1007.7
2022-10-20T14:57:15.000Z,1007.7
2022-10-20T14:58:27.000Z,1007.6
2022-10-20T14:59:39.000Z,1007.6
2022-10-20T15:00:51.000Z,1007.7
2022-10-20T15:02:03.000Z,1007.7
2022-10-20T15:03:16.000Z,1007.7
2022-10-20T15:04:28.000Z,1007.6
2022-10-20T15:05:39.000Z,1007.6
2022-10-20T15:06:51.000Z,1007.6
2022-10-20T15:08:03.000Z,1007.6
2022-10-20T15:09:16.000Z,1007.6
2022-10-20T15:10:28.000Z,1007.5
2022-10-20T15:11:40.000Z,1007.6
2022-10-20T15:12:52.000Z,1007.6
2022-10-20T15:14:04.000Z,1007.7
2022-10-20T15:15:16.000Z,1007.7
2022-10-20T15:16:29.000Z,1007.6
2022-10-20T15:17:41.000Z,1007.6
2022-10-20T15:18:53.000Z,1007.6